Thursday, June 30, 2016, 9:58 AM EDT

KPTB, Petersburg, Dinwiddie County Airport

Location: Petersburg, VA, United States Lat: 37.183
Local Time: 9:58 AM EDT (13:58 GMT) Lon: -77.517
Time Zone: US/Eastern Elev: 193 ft

Show me the last for .
Show Decoded

2016-06-30 09:35 METAR KPTB 301335Z AUTO 07005KT 10SM OVC049 25/16 A3007 RMK AO2 T02520158 =
2016-06-30 09:15 METAR KPTB 301315Z AUTO 05004KT 10SM SCT043 SCT049 25/15 A3007 RMK AO2 T02500154
                 =
2016-06-30 08:55 METAR KPTB 301255Z AUTO 05005KT 10SM CLR 24/15 A3006 RMK AO2 T02440154 =
2016-06-30 08:35 METAR KPTB 301235Z AUTO 04007KT 10SM CLR 24/16 A3005 RMK AO2 T02380156 =
2016-06-30 08:15 METAR KPTB 301215Z AUTO 06006KT 10SM CLR 23/16 A3005 RMK AO2 T02310156 =
2016-06-30 07:55 METAR KPTB 301155Z AUTO 04006KT 10SM SCT050 22/15 A3004 RMK AO2 T02230154 10223
                 20194 =
2016-06-30 07:35 METAR KPTB 301135Z AUTO 04006KT 10SM BKN050 22/15 A3004 RMK AO2 T02150152 =
2016-06-30 07:15 METAR KPTB 301115Z AUTO 03004KT 10SM CLR 21/15 A3003 RMK AO2 T02100150 =
2016-06-30 06:55 METAR KPTB 301055Z AUTO 02004KT 10SM CLR 20/15 A3003 RMK AO2 T02040151 =
2016-06-30 06:35 METAR KPTB 301035Z AUTO 04003KT 10SM CLR 20/16 A3003 RMK AO2 T01970157 =
2016-06-30 06:15 METAR KPTB 301015Z AUTO 03004KT 10SM CLR 20/16 A3003 RMK AO2 T01950157 =
2016-06-30 05:55 METAR KPTB 300955Z AUTO 03006KT 10SM CLR 20/16 A3002 RMK AO2 T01960161 =
2016-06-30 05:35 METAR KPTB 300935Z AUTO 02005KT 10SM CLR 20/17 A3002 RMK AO2 T01980165 =
2016-06-30 05:15 METAR KPTB 300915Z AUTO 02005KT 10SM CLR 21/16 A3002 RMK AO2 T02050162 =
2016-06-30 04:55 METAR KPTB 300855Z AUTO 01004KT 10SM CLR 20/17 A3002 RMK AO2 T02010165 =
2016-06-30 04:35 METAR KPTB 300835Z AUTO 03004KT 10SM CLR 20/17 A3002 RMK AO2 T02000165 =
2016-06-30 04:15 METAR KPTB 300815Z AUTO 02005KT 10SM SCT047 21/17 A3003 RMK AO2 T02050165 =
2016-06-30 03:55 METAR KPTB 300755Z AUTO 02006KT 10SM SCT047 21/17 A3003 RMK AO2 T02080167 =
2016-06-30 03:35 METAR KPTB 300735Z AUTO 02004KT 10SM CLR 21/17 A3004 RMK AO2 T02050169 =
2016-06-30 03:15 METAR KPTB 300715Z AUTO 03004KT 10SM SCT034 SCT050 21/17 A3003 RMK AO2 T02100170
                 =
2016-06-30 02:55 METAR KPTB 300655Z AUTO 03004KT 10SM OVC034 22/18 A3003 RMK AO2 T02150175 =
2016-06-30 02:35 METAR KPTB 300635Z AUTO 03005KT 10SM BKN036 OVC050 21/18 A3004 RMK AO2 T02140180
                 =
2016-06-30 02:15 METAR KPTB 300615Z AUTO 00000KT 10SM SCT032 SCT055 21/18 A3004 RMK AO2 T02050176
                 =
2016-06-30 01:55 METAR KPTB 300555Z AUTO 03004KT 10SM SCT029 BKN110 21/18 A3004 RMK AO2 T02120179
                 10276 20204 =
2016-06-30 01:35 METAR KPTB 300535Z AUTO 04004KT 10SM BKN110 21/18 A3003 RMK AO2 T02100179 =
2016-06-30 01:15 METAR KPTB 300515Z AUTO 36003KT 10SM SCT050 SCT065 BKN120 22/18 A3003 RMK AO2
                 T02210177 =
2016-06-30 00:55 METAR KPTB 300455Z AUTO 00000KT 10SM SCT050 BKN060 OVC100 22/18 A3003 RMK AO2
                 T02190183 =
2016-06-30 00:35 METAR KPTB 300435Z AUTO 00000KT 10SM SCT050 SCT070 BKN100 22/18 A3003 RMK AO2
                 T02240178 =
2016-06-30 00:15 METAR KPTB 300415Z AUTO 04003KT 10SM SCT060 BKN110 23/18 A3003 RMK AO2 T02280177
                 =
2016-06-29 23:55 METAR KPTB 300355Z AUTO 04004KT 10SM BKN110 23/18 A3003 RMK AO2 LTG DSNT S
                 T02280181 =
2016-06-29 23:35 METAR KPTB 300335Z AUTO 05004KT 10SM SCT110 23/18 A3003 RMK AO2 T02330180 =
2016-06-29 23:15 METAR KPTB 300315Z AUTO 03006KT 10SM SCT060 SCT080 SCT110 23/19 A3002 RMK AO2
                 T02340185 =
2016-06-29 22:55 METAR KPTB 300255Z AUTO 05007KT 10SM BKN065 OVC080 24/19 A3000 RMK AO2 T02400191
                 =
2016-06-29 22:35 METAR KPTB 300235Z AUTO 03005KT 10SM BKN065 BKN075 22/22 A3000 RMK AO2 T02200215
                 =
2016-06-29 22:15 METAR KPTB 300215Z AUTO 00000KT 10SM CLR 21/21 A2999 RMK AO2 T02060206 =
2016-06-29 21:55 METAR KPTB 300155Z AUTO 00000KT 10SM CLR 20/20 A2998 RMK AO2 T02040204 =
2016-06-29 21:35 METAR KPTB 300135Z AUTO 00000KT 10SM CLR 21/21 A2998 RMK AO2 T02080208 =
2016-06-29 21:15 METAR KPTB 300115Z AUTO 00000KT 10SM CLR 21/21 A2996 RMK AO2 T02130213 =
2016-06-29 20:55 METAR KPTB 300055Z AUTO 00000KT 10SM CLR 22/22 A2996 RMK AO2 T02210221 =
2016-06-29 20:35 METAR KPTB 300035Z AUTO 00000KT 10SM CLR 23/22 A2995 RMK AO2 T02300220 =
2016-06-29 20:15 METAR KPTB 300015Z AUTO 00000KT 10SM CLR 25/22 A2995 RMK AO2 T02450216 =
2016-06-29 19:55 METAR KPTB 292355Z AUTO 00000KT 10SM CLR 28/19 A2995 RMK AO2 T02830194 10305
                 20283 =
2016-06-29 19:35 METAR KPTB 292335Z AUTO 00000KT 10SM CLR 29/16 A2994 RMK AO2 T02910163 =
2016-06-29 19:15 METAR KPTB 292315Z AUTO 36003KT 10SM CLR 30/16 A2995 RMK AO2 T02950164 =
2016-06-29 18:55 METAR KPTB 292255Z AUTO 00000KT 10SM CLR 30/16 A2995 RMK AO2 T02950162 =
2016-06-29 18:35 METAR KPTB 292235Z AUTO 00000KT 10SM CLR 30/16 A2994 RMK AO2 T02980163 =
2016-06-29 18:15 METAR KPTB 292215Z AUTO 00000KT 10SM CLR 30/16 A2993 RMK AO2 T02990158 =
2016-06-29 17:55 METAR KPTB 292155Z AUTO 30003KT 7SM CLR 30/16 A2994 RMK AO2 T03000159 =
2016-06-29 17:35 METAR KPTB 292135Z AUTO 01003KT 10SM CLR 30/15 A2994 RMK AO2 T02990154 =
2016-06-29 17:15 METAR KPTB 292115Z AUTO 01004KT 10SM CLR 30/16 A2995 RMK AO2 T03040161 =
2016-06-29 16:55 METAR KPTB 292055Z AUTO 36004KT 10SM CLR 30/16 A2995 RMK AO2 T03010159 =
2016-06-29 16:35 METAR KPTB 292035Z AUTO 33005KT 10SM CLR 30/15 A2995 RMK AO2 T02970152 =
2016-06-29 16:15 METAR KPTB 292015Z AUTO 35005KT 10SM SCT055 30/15 A2995 RMK AO2 T03020152 =
2016-06-29 15:55 METAR KPTB 291955Z AUTO 29004KT 10SM SCT055 30/15 A2995 RMK AO2 T03010147 =
2016-06-29 15:35 METAR KPTB 291935Z AUTO 27006KT 10SM CLR 30/14 A2995 RMK AO2 T02960142 =
2016-06-29 15:15 METAR KPTB 291915Z AUTO 33006KT 10SM SCT055 SCT065 30/15 A2995 RMK AO2 T02980151
                 =
2016-06-29 14:55 METAR KPTB 291855Z AUTO 35006KT 10SM SCT060 SCT065 30/15 A2995 RMK AO2 T02950146
                 =
2016-06-29 14:35 METAR KPTB 291835Z AUTO 30004KT 10SM CLR 30/15 A2995 RMK AO2 T02960153 =
2016-06-29 14:15 METAR KPTB 291815Z AUTO 26003KT 10SM CLR 30/16 A2996 RMK AO2 T02950158 =
2016-06-29 13:55 METAR KPTB 291755Z AUTO 32005KT 10SM SCT046 29/17 A2996 RMK AO2 T02900166 10293
                 20230 =
2016-06-29 13:35 METAR KPTB 291735Z AUTO 28006KT 10SM SCT044 SCT055 SCT070 29/17 A2996 RMK AO2
                 T02890171 =
2016-06-29 13:15 METAR KPTB 291715Z AUTO 30006KT 10SM SCT055 29/17 A2996 RMK AO2 T02910174 =
2016-06-29 12:55 METAR KPTB 291655Z AUTO 31005KT 10SM CLR 29/18 A2996 RMK AO2 T02870180 =
2016-06-29 12:35 METAR KPTB 291635Z AUTO 33006KT 10SM CLR 29/18 A2996 RMK AO2 T02860176 =
2016-06-29 12:15 METAR KPTB 291615Z AUTO 02008KT 10SM SCT037 28/18 A2996 RMK AO2 T02840180 =
2016-06-29 11:55 METAR KPTB 291555Z AUTO 02006KT 10SM CLR 28/18 A2996 RMK AO2 T02830180 =
2016-06-29 11:35 METAR KPTB 291535Z AUTO 34006KT 10SM CLR 28/17 A2996 RMK AO2 T02810174 =
2016-06-29 11:15 METAR KPTB 291515Z AUTO 35007KT 10SM CLR 28/18 A2996 RMK AO2 T02770175 =
2016-06-29 10:55 METAR KPTB 291455Z AUTO 03009KT 10SM CLR 28/18 A2996 RMK AO2 T02760176 =
2016-06-29 10:35 METAR KPTB 291435Z AUTO 35004KT 10SM CLR 28/19 A2996 RMK AO2 T02750186 =
2016-06-29 10:15 METAR KPTB 291415Z AUTO 36006KT 10SM CLR 27/19 A2997 RMK AO2 T02700191 =

Support USWX by starting your Amazon purchase here.